Time;durP1;ratioP1;P1;durP2;ratioP2;P2;SDS_P1;SDS_P2;PMS_P1;PMS_P2;Temp;Humidity;BMP_temperature;BMP_pressure;BME280_temperature;BME280_humidity;BME280_pressure;Samples;Min_cycle;Max_cycle;Signal;HPM_P1;HPM_P2
2023/12/19 00:00:57;;;;;;;4.25;1.63;;;17.90;49.10;;;;;;5092032;28;20739;-61
2023/12/19 00:03:26;;;;;;;6.88;2.00;;;17.90;49.10;;;;;;5092268;28;20240;-60
2023/12/19 00:05:53;;;;;;;3.88;1.70;;;17.90;49.10;;;;;;5092491;28;20190;-59
2023/12/19 00:08:19;;;;;;;3.90;1.48;;;17.90;49.20;;;;;;5092326;28;20273;-60
2023/12/19 00:10:47;;;;;;;5.00;1.80;;;17.80;49.10;;;;;;5093025;28;20300;-58
2023/12/19 00:13:13;;;;;;;6.90;1.65;;;17.80;49.10;;;;;;5091939;28;20229;-59
2023/12/19 00:15:41;;;;;;;4.90;1.83;;;17.80;49.10;;;;;;5091913;28;20218;-59
2023/12/19 00:18:08;;;;;;;6.32;1.60;;;17.80;49.10;;;;;;5092312;28;20324;-60
2023/12/19 00:20:36;;;;;;;4.00;1.60;;;17.80;49.10;;;;;;5092346;28;20301;-59
2023/12/19 00:23:03;;;;;;;3.47;1.40;;;17.80;49.10;;;;;;5092017;28;20277;-60
2023/12/19 00:25:31;;;;;;;5.97;1.52;;;17.80;49.10;;;;;;5092852;28;20267;-59
2023/12/19 00:27:59;;;;;;;4.93;1.83;;;17.80;49.20;;;;;;5092353;28;20182;-60
2023/12/19 00:30:26;;;;;;;5.32;1.80;;;17.80;49.20;;;;;;5092098;28;20217;-60
2023/12/19 00:32:53;;;;;;;4.68;1.95;;;17.80;49.20;;;;;;5092318;28;20193;-60
2023/12/19 00:35:20;;;;;;;4.45;2.00;;;17.80;49.30;;;;;;5092318;28;20300;-60
2023/12/19 00:37:48;;;;;;;5.05;1.77;;;17.80;49.30;;;;;;5091585;28;20765;-60
2023/12/19 00:40:15;;;;;;;5.65;1.85;;;17.80;49.40;;;;;;5092424;28;20306;-60
2023/12/19 00:42:42;;;;;;;5.45;1.70;;;17.80;49.40;;;;;;5091955;28;20277;-60
2023/12/19 00:45:11;;;;;;;3.88;1.63;;;17.80;49.40;;;;;;5091711;28;20712;-60
2023/12/19 00:47:38;;;;;;;4.57;1.83;;;17.80;49.50;;;;;;5091798;28;20281;-60
2023/12/19 00:50:07;;;;;;;4.68;1.90;;;17.80;49.50;;;;;;5092401;28;20544;-60
2023/12/19 00:52:34;;;;;;;6.25;1.90;;;17.80;49.50;;;;;;5091426;28;20540;-60
2023/12/19 00:55:03;;;;;;;4.93;1.80;;;17.80;49.40;;;;;;5092181;28;20313;-60
2023/12/19 00:57:29;;;;;;;3.20;1.75;;;17.80;49.50;;;;;;5091651;28;20746;-60
2023/12/19 00:59:56;;;;;;;4.15;1.77;;;17.80;49.50;;;;;;5091705;28;20783;-60
2023/12/19 01:02:23;;;;;;;4.53;1.83;;;17.80;49.50;;;;;;5091742;28;20740;-59
2023/12/19 01:04:50;;;;;;;3.72;1.70;;;17.80;49.60;;;;;;5094616;28;20582;-60
2023/12/19 01:07:17;;;;;;;5.63;2.00;;;17.70;49.50;;;;;;5095249;28;20194;-60
2023/12/19 01:09:44;;;;;;;4.05;1.55;;;17.70;49.50;;;;;;5095902;28;20300;-60
2023/12/19 01:12:12;;;;;;;6.13;1.77;;;17.70;49.50;;;;;;5095420;28;20324;-59
2023/12/19 01:14:39;;;;;;;5.13;1.77;;;17.70;49.60;;;;;;5095637;28;20332;-60
2023/12/19 01:17:06;;;;;;;3.95;1.92;;;17.70;49.70;;;;;;5095489;28;20269;-60
2023/12/19 01:19:34;;;;;;;7.55;2.03;;;17.70;49.70;;;;;;5095384;28;20754;-59
2023/12/19 01:22:00;;;;;;;3.45;1.58;;;17.70;49.70;;;;;;5095208;28;20265;-60
2023/12/19 01:24:27;;;;;;;4.85;1.70;;;17.70;49.70;;;;;;5095414;28;20309;-60
2023/12/19 01:26:54;;;;;;;4.18;1.95;;;17.70;49.70;;;;;;5095087;28;20535;-60
2023/12/19 01:29:23;;;;;;;5.05;2.00;;;17.70;49.80;;;;;;5095091;28;20218;-59
2023/12/19 01:31:50;;;;;;;4.95;1.85;;;17.70;49.90;;;;;;5095661;28;20307;-60
2023/12/19 01:34:17;;;;;;;5.88;1.85;;;17.70;49.90;;;;;;5095272;28;20245;-60
2023/12/19 01:36:45;;;;;;;7.70;1.85;;;17.70;49.90;;;;;;5094987;28;20182;-59
2023/12/19 01:39:12;;;;;;;7.35;2.13;;;17.60;49.80;;;;;;5094840;28;20756;-60
2023/12/19 01:41:39;;;;;;;5.13;1.60;;;17.70;50.00;;;;;;5094888;28;20486;-60
2023/12/19 01:44:06;;;;;;;2.55;1.67;;;17.70;50.00;;;;;;5094860;28;20301;-60
2023/12/19 01:46:34;;;;;;;5.25;1.70;;;17.70;50.00;;;;;;5095045;28;20268;-59
2023/12/19 01:49:01;;;;;;;5.15;1.58;;;17.70;50.00;;;;;;5095035;28;20218;-60
2023/12/19 01:51:28;;;;;;;5.43;1.65;;;17.70;50.00;;;;;;5095160;28;20263;-59
2023/12/19 01:53:55;;;;;;;4.93;1.90;;;17.60;50.00;;;;;;5094719;28;20273;-60
2023/12/19 01:56:24;;;;;;;2.72;1.85;;;17.70;50.00;;;;;;5094904;28;20265;-59
2023/12/19 01:58:51;;;;;;;4.93;2.10;;;17.70;50.10;;;;;;5094694;28;20214;-60
2023/12/19 02:01:20;;;;;;;5.70;1.83;;;17.70;50.10;;;;;;5094338;28;20683;-60
2023/12/19 02:03:49;;;;;;;4.05;1.73;;;17.70;50.20;;;;;;5094654;28;20190;-59
2023/12/19 02:06:19;;;;;;;5.20;1.95;;;17.60;50.10;;;;;;5094438;28;20187;-59
2023/12/19 02:08:46;;;;;;;3.85;1.65;;;17.60;50.20;;;;;;5094591;28;20190;-60
2023/12/19 02:11:13;;;;;;;5.65;1.60;;;17.60;50.20;;;;;;5094450;28;20186;-59
2023/12/19 02:13:40;;;;;;;4.07;1.67;;;17.60;50.20;;;;;;5094092;28;20284;-59
2023/12/19 02:16:07;;;;;;;3.75;1.92;;;17.60;50.20;;;;;;5093799;28;20281;-60
2023/12/19 02:18:34;;;;;;;4.95;1.65;;;17.60;50.30;;;;;;5094443;28;20268;-60
2023/12/19 02:21:04;;;;;;;7.28;1.92;;;17.60;50.40;;;;;;5094666;28;20320;-59
2023/12/19 02:23:32;;;;;;;3.88;1.67;;;17.60;50.30;;;;;;5094229;28;20190;-60
2023/12/19 02:25:59;;;;;;;3.50;1.60;;;17.60;50.30;;;;;;5094534;28;20308;-60
2023/12/19 02:28:26;;;;;;;4.85;1.60;;;17.60;50.40;;;;;;5093998;28;20221;-58
2023/12/19 02:30:53;;;;;;;6.22;1.77;;;17.60;50.40;;;;;;5093923;28;20304;-60
2023/12/19 02:33:19;;;;;;;4.75;1.70;;;17.60;50.50;;;;;;5093831;28;20626;-60
2023/12/19 02:35:46;;;;;;;5.78;1.83;;;17.50;50.40;;;;;;5094286;28;20256;-60
2023/12/19 02:38:13;;;;;;;5.35;1.88;;;17.60;50.50;;;;;;5093611;28;20304;-60
2023/12/19 02:40:42;;;;;;;4.38;1.58;;;17.60;50.50;;;;;;5094055;28;20296;-60
2023/12/19 02:43:08;;;;;;;4.20;1.77;;;17.60;50.50;;;;;;5093965;28;20189;-60
2023/12/19 02:45:35;;;;;;;5.85;2.10;;;17.60;50.50;;;;;;5093768;28;20301;-59
2023/12/19 02:48:02;;;;;;;5.45;1.88;;;17.50;50.40;;;;;;5093881;28;20269;-59
2023/12/19 02:50:29;;;;;;;5.63;1.80;;;17.60;50.50;;;;;;5094041;28;20649;-60
2023/12/19 02:52:56;;;;;;;5.18;1.85;;;17.50;50.40;;;;;;5093379;28;20186;-59
2023/12/19 02:55:23;;;;;;;4.32;1.80;;;17.50;50.40;;;;;;5093947;28;20253;-60
2023/12/19 02:57:51;;;;;;;5.78;2.00;;;17.50;50.50;;;;;;5093618;28;20256;-59
2023/12/19 03:00:18;;;;;;;6.85;1.85;;;17.50;50.50;;;;;;5093398;28;20306;-60
2023/12/19 03:02:45;;;;;;;5.20;1.70;;;17.50;50.50;;;;;;5093641;28;20243;-59
2023/12/19 03:05:12;;;;;;;3.45;1.52;;;17.50;50.50;;;;;;5093629;28;20331;-60
2023/12/19 03:07:39;;;;;;;5.68;1.80;;;17.60;50.60;;;;;;5093369;28;20186;-60
2023/12/19 03:10:08;;;;;;;6.03;2.10;;;17.50;50.60;;;;;;5093813;28;20304;-59
2023/12/19 03:12:35;;;;;;;4.30;1.50;;;17.50;50.70;;;;;;5093134;28;20703;-60
2023/12/19 03:15:04;;;;;;;4.65;1.40;;;17.50;50.70;;;;;;5092969;28;20594;-59
2023/12/19 03:17:31;;;;;;;3.72;1.50;;;17.50;50.70;;;;;;5093256;28;20190;-60
2023/12/19 03:19:58;;;;;;;4.68;1.42;;;17.50;50.70;;;;;;5093297;28;20304;-59
2023/12/19 03:22:24;;;;;;;6.10;2.10;;;17.50;50.80;;;;;;5092827;28;20277;-60
2023/12/19 03:24:52;;;;;;;6.10;1.55;;;17.50;50.80;;;;;;5093278;28;20296;-59
2023/12/19 03:27:19;;;;;;;8.63;1.67;;;17.50;50.80;;;;;;5092446;28;20186;-60
2023/12/19 03:29:45;;;;;;;6.38;1.85;;;17.50;50.80;;;;;;5092434;28;20634;-60
2023/12/19 03:32:14;;;;;;;4.20;1.83;;;17.50;50.80;;;;;;5093274;28;20622;-60
2023/12/19 03:34:41;;;;;;;9.18;1.88;;;17.50;50.80;;;;;;5092661;28;20263;-60
2023/12/19 03:37:08;;;;;;;6.75;1.90;;;17.50;50.80;;;;;;5092679;28;20220;-59
2023/12/19 03:39:35;;;;;;;4.07;1.70;;;17.50;50.90;;;;;;5092732;28;20313;-60
2023/12/19 03:42:01;;;;;;;5.85;2.30;;;17.40;50.80;;;;;;5092886;28;20277;-60
2023/12/19 03:44:28;;;;;;;3.67;1.67;;;17.50;50.90;;;;;;5092313;28;20744;-60
2023/12/19 03:46:55;;;;;;;4.88;1.70;;;17.50;50.90;;;;;;5092452;28;20727;-59
2023/12/19 03:49:23;;;;;;;5.22;1.35;;;17.50;50.90;;;;;;5092514;28;20658;-60
2023/12/19 03:51:50;;;;;;;4.97;1.98;;;17.50;51.00;;;;;;5092581;28;20277;-60
2023/12/19 03:54:17;;;;;;;6.68;2.08;;;17.50;50.90;;;;;;5092692;28;20214;-60
2023/12/19 03:56:44;;;;;;;4.32;1.67;;;17.40;50.90;;;;;;5092739;28;20282;-59
2023/12/19 03:59:11;;;;;;;6.28;1.77;;;17.50;51.00;;;;;;5092329;28;20313;-60
2023/12/19 04:01:45;;;;;;;4.80;1.80;;;17.40;51.00;;;;;;5092730;28;20255;-59
2023/12/19 04:04:13;;;;;;;6.60;1.77;;;17.40;51.00;;;;;;5092195;28;20588;-60
2023/12/19 04:06:43;;;;;;;6.93;2.00;;;17.40;51.00;;;;;;5092200;28;20198;-59
2023/12/19 04:09:10;;;;;;;4.22;1.80;;;17.40;51.60;;;;;;5092547;28;20263;-60
2023/12/19 04:11:37;;;;;;;4.68;1.73;;;17.40;51.00;;;;;;5092284;28;20312;-59
2023/12/19 04:14:05;;;;;;;3.28;1.38;;;17.40;51.00;;;;;;5091974;28;20723;-60
2023/12/19 04:16:32;;;;;;;4.05;1.65;;;17.40;51.00;;;;;;5092506;28;20561;-60
2023/12/19 04:18:59;;;;;;;6.90;1.88;;;17.40;51.70;;;;;;5092355;28;20304;-60
2023/12/19 04:21:26;;;;;;;4.80;1.65;;;17.40;51.00;;;;;;5092090;28;20270;-60
2023/12/19 04:23:54;;;;;;;5.90;1.70;;;17.40;51.00;;;;;;5090186;28;20265;-59
2023/12/19 04:26:21;;;;;;;4.15;1.75;;;17.40;51.00;;;;;;5092417;28;20281;-59
2023/12/19 04:28:48;;;;;;;6.22;2.22;;;17.40;51.10;;;;;;5091891;28;20186;-60
2023/12/19 04:31:15;;;;;;;4.00;1.42;;;17.40;51.10;;;;;;5092543;28;20210;-59
2023/12/19 04:33:42;;;;;;;3.83;1.38;;;17.40;51.70;;;;;;5092305;28;20273;-60
2023/12/19 04:36:10;;;;;;;4.93;1.85;;;17.40;51.10;;;;;;5092230;28;20224;-60
2023/12/19 04:38:37;;;;;;;7.15;1.65;;;17.40;51.10;;;;;;5094996;28;20210;-59
2023/12/19 04:41:06;;;;;;;4.22;1.80;;;17.40;51.10;;;;;;5096503;28;20313;-60
2023/12/19 04:43:33;;;;;;;4.97;1.90;;;17.40;51.20;;;;;;5095775;28;20190;-59
2023/12/19 04:46:01;;;;;;;4.53;1.58;;;17.40;51.20;;;;;;5096233;28;20601;-60
2023/12/19 04:48:31;;;;;;;4.50;1.65;;;17.40;51.30;;;;;;5096219;28;20200;-60
2023/12/19 04:50:58;;;;;;;4.50;1.35;;;17.40;51.80;;;;;;5095958;28;20214;-60
2023/12/19 04:53:25;;;;;;;5.28;1.70;;;17.40;51.30;;;;;;5096130;28;20197;-59
2023/12/19 04:55:52;;;;;;;5.57;1.60;;;17.40;51.30;;;;;;5096165;28;20221;-60
2023/12/19 04:58:21;;;;;;;4.07;1.45;;;17.40;51.90;;;;;;5095321;28;20566;-59
2023/12/19 05:00:48;;;;;;;3.35;1.60;;;17.40;51.30;;;;;;5095653;28;20218;-59
2023/12/19 05:03:15;;;;;;;4.72;1.65;;;17.40;51.30;;;;;;5095564;28;20190;-59
2023/12/19 05:05:42;;;;;;;3.45;1.52;;;17.40;51.30;;;;;;5095465;28;20710;-60
2023/12/19 05:08:10;;;;;;;8.77;1.90;;;17.30;51.20;;;;;;5095840;28;20611;-59
2023/12/19 05:10:37;;;;;;;4.68;1.67;;;17.40;51.40;;;;;;5095927;28;20290;-60
2023/12/19 05:13:05;;;;;;;6.50;2.10;;;17.40;51.40;;;;;;5095434;28;20225;-60
2023/12/19 05:15:33;;;;;;;3.97;1.70;;;17.40;51.40;;;;;;5096094;28;20629;-60
2023/12/19 05:18:00;;;;;;;5.97;1.90;;;17.30;51.40;;;;;;5095663;28;20269;-60
2023/12/19 05:20:27;;;;;;;3.10;1.60;;;17.40;51.50;;;;;;5095505;28;20319;-59
2023/12/19 05:22:54;;;;;;;5.68;1.73;;;17.30;51.40;;;;;;5095751;28;20190;-60
2023/12/19 05:25:21;;;;;;;6.72;1.63;;;17.40;51.50;;;;;;5095400;28;20221;-61
2023/12/19 05:27:48;;;;;;;4.72;1.77;;;17.40;51.50;;;;;;5094843;28;20192;-59
2023/12/19 05:30:16;;;;;;;4.63;1.65;;;17.30;51.50;;;;;;5095521;28;20700;-59
2023/12/19 05:32:44;;;;;;;3.45;1.70;;;17.30;51.50;;;;;;5095338;28;20206;-60
2023/12/19 05:35:11;;;;;;;3.80;1.45;;;17.30;51.50;;;;;;5094856;28;20214;-60
2023/12/19 05:37:38;;;;;;;6.75;2.20;;;17.30;51.30;;;;;;5095286;28;20204;-60
2023/12/19 05:40:07;;;;;;;4.97;1.83;;;17.40;51.40;;;;;;5094893;28;20692;-59
2023/12/19 05:42:34;;;;;;;3.72;1.60;;;17.40;51.30;;;;;;5094466;28;20290;-60
2023/12/19 05:45:03;;;;;;;5.72;1.45;;;17.50;52.00;;;;;;5095135;28;20224;-59
2023/12/19 05:47:30;;;;;;;3.65;1.50;;;17.50;51.50;;;;;;5095144;28;20225;-60
2023/12/19 05:49:58;;;;;;;3.95;1.80;;;17.70;51.60;;;;;;5094056;28;20221;-59
2023/12/19 05:52:25;;;;;;;4.40;1.58;;;17.80;51.40;;;;;;5094984;28;20190;-60
2023/12/19 05:54:51;;;;;;;3.55;1.63;;;17.90;51.30;;;;;;5095069;28;20220;-60
2023/12/19 05:57:18;;;;;;;7.05;1.98;;;18.10;51.70;;;;;;5094507;28;20197;-59
2023/12/19 05:59:45;;;;;;;4.70;1.63;;;18.20;51.00;;;;;;5094847;28;20240;-60
2023/12/19 06:02:12;;;;;;;4.97;1.30;;;18.40;50.90;;;;;;5094804;28;20278;-59
2023/12/19 06:04:39;;;;;;;3.90;1.50;;;18.50;50.60;;;;;;5094077;28;20210;-60
2023/12/19 06:07:07;;;;;;;4.03;1.77;;;18.60;50.40;;;;;;5094802;28;20197;-59
2023/12/19 06:09:34;;;;;;;3.83;1.45;;;18.80;50.30;;;;;;5094674;28;20301;-60
2023/12/19 06:12:01;;;;;;;7.57;1.75;;;18.90;50.00;;;;;;5094337;28;20236;-59
2023/12/19 06:14:27;;;;;;;4.45;1.33;;;19.00;50.70;;;;;;5094769;28;20214;-59
2023/12/19 06:16:54;;;;;;;2.95;1.27;;;19.20;49.90;;;;;;5094520;28;20268;-60
2023/12/19 06:19:21;;;;;;;3.60;1.25;;;19.30;49.70;;;;;;5093886;28;20222;-60
2023/12/19 06:21:48;;;;;;;4.97;1.60;;;19.40;49.50;;;;;;5094559;28;20192;-62
2023/12/19 06:24:16;;;;;;;4.65;1.50;;;19.50;49.30;;;;;;5094282;28;20182;-62
2023/12/19 06:26:43;;;;;;;3.10;1.35;;;19.70;49.30;;;;;;5094194;28;20192;-62
2023/12/19 06:29:10;;;;;;;4.10;1.27;;;19.80;49.10;;;;;;5093984;28;20188;-60
2023/12/19 06:31:42;;;;;;;2.90;1.10;;;19.80;48.90;;;;;;5093899;28;20671;-59
2023/12/19 06:34:09;;;;;;;3.95;1.48;;;20.00;49.40;;;;;;5093867;28;20183;-59
2023/12/19 06:36:37;;;;;;;3.85;1.50;;;20.10;48.60;;;;;;5094206;28;20277;-59
2023/12/19 06:39:06;;;;;;;4.10;1.50;;;20.20;48.60;;;;;;5093847;28;20259;-60
2023/12/19 06:41:34;;;;;;;3.97;1.25;;;20.20;48.30;;;;;;5093490;28;20231;-60
2023/12/19 06:44:01;;;;;;;6.70;1.70;;;20.40;48.30;;;;;;5093876;28;20194;-60
2023/12/19 06:46:28;;;;;;;3.50;1.30;;;20.40;48.80;;;;;;5094279;28;20309;-60
2023/12/19 06:48:55;;;;;;;5.13;1.27;;;20.50;48.70;;;;;;5093377;28;20190;-60
2023/12/19 06:51:25;;;;;;;5.25;1.60;;;20.40;47.90;;;;;;5093965;28;20228;-60
2023/12/19 06:53:53;;;;;;;4.07;1.45;;;20.40;48.00;;;;;;5093493;28;20208;-59
2023/12/19 06:56:19;;;;;;;4.57;1.60;;;20.40;48.00;;;;;;5093638;28;20217;-60
2023/12/19 06:58:48;;;;;;;3.78;1.35;;;20.30;48.00;;;;;;5093365;28;20186;-59
2023/12/19 07:01:16;;;;;;;4.78;1.55;;;20.20;48.00;;;;;;5092872;28;20305;-59
2023/12/19 07:03:43;;;;;;;5.05;1.38;;;20.20;48.70;;;;;;5092884;28;20713;-59
2023/12/19 07:06:13;;;;;;;9.02;1.40;;;20.10;48.80;;;;;;5093534;28;20217;-60
2023/12/19 07:08:39;;;;;;;4.13;1.70;;;20.00;48.80;;;;;;5093553;28;20284;-60
2023/12/19 07:11:06;;;;;;;3.60;1.30;;;19.90;48.20;;;;;;5092861;28;20221;-59
2023/12/19 07:13:33;;;;;;;5.90;1.48;;;19.90;48.40;;;;;;5093541;28;20191;-59
2023/12/19 07:16:03;;;;;;;4.97;1.48;;;19.80;48.40;;;;;;5093352;28;20610;-59
2023/12/19 07:18:30;;;;;;;7.13;1.80;;;19.70;48.60;;;;;;5092968;28;20247;-60
2023/12/19 07:20:57;;;;;;;4.25;1.40;;;19.60;49.30;;;;;;5093341;28;20257;-59
2023/12/19 07:23:24;;;;;;;4.13;1.30;;;19.50;48.70;;;;;;5093269;28;20276;-58
2023/12/19 07:25:51;;;;;;;5.45;1.30;;;19.50;48.90;;;;;;5092927;28;20220;-59
2023/12/19 07:28:18;;;;;;;3.33;1.30;;;19.40;49.50;;;;;;5093193;28;20276;-59
2023/12/19 07:30:45;;;;;;;6.72;1.33;;;19.30;49.00;;;;;;5093328;28;20300;-60
2023/12/19 07:33:14;;;;;;;3.95;1.42;;;19.30;49.10;;;;;;5092718;28;20186;-60
2023/12/19 07:35:41;;;;;;;3.38;1.15;;;19.20;49.20;;;;;;5092815;28;20290;-60
2023/12/19 07:38:08;;;;;;;2.53;1.20;;;19.20;49.30;;;;;;5092932;28;20198;-60
2023/12/19 07:40:36;;;;;;;5.20;1.50;;;19.10;49.30;;;;;;5092654;28;20317;-60
2023/12/19 07:43:03;;;;;;;4.15;1.50;;;19.00;49.30;;;;;;5092873;28;20190;-59
2023/12/19 07:45:32;;;;;;;3.65;1.65;;;19.00;49.50;;;;;;5093022;28;20289;-62
2023/12/19 07:47:59;;;;;;;5.07;1.42;;;19.00;49.50;;;;;;5092496;28;20243;-62
2023/12/19 07:50:28;;;;;;;6.95;1.65;;;18.90;49.50;;;;;;5092596;28;20660;-63
2023/12/19 07:52:55;;;;;;;4.63;1.67;;;18.80;49.60;;;;;;5092984;28;20190;-62
2023/12/19 07:55:22;;;;;;;5.20;1.88;;;18.80;49.70;;;;;;5092542;28;20213;-63
2023/12/19 07:57:49;;;;;;;3.53;1.40;;;18.80;49.90;;;;;;5092687;28;20182;-63
2023/12/19 08:00:16;;;;;;;4.65;1.45;;;18.80;49.90;;;;;;5092770;28;20244;-62
2023/12/19 08:02:43;;;;;;;4.82;1.40;;;18.80;49.90;;;;;;5091951;28;20202;-62
2023/12/19 08:05:12;;;;;;;5.32;1.40;;;18.90;50.00;;;;;;5092597;28;20214;-63
2023/12/19 08:07:40;;;;;;;3.22;1.40;;;18.90;50.00;;;;;;5092199;28;20193;-61
2023/12/19 08:10:07;;;;;;;6.35;1.45;;;19.10;50.10;;;;;;5097723;28;20227;-62
2023/12/19 08:12:34;;;;;;;5.10;1.40;;;19.20;49.90;;;;;;5109654;28;20271;-62
2023/12/19 08:15:02;;;;;;;6.35;1.60;;;19.30;49.80;;;;;;5106307;28;20300;-62
2023/12/19 08:17:29;;;;;;;5.63;1.67;;;19.30;49.80;;;;;;5105057;28;20294;-61
2023/12/19 08:19:55;;;;;;;7.68;1.52;;;19.40;50.30;;;;;;5102931;28;20698;-62
2023/12/19 08:22:23;;;;;;;6.10;1.55;;;19.50;49.80;;;;;;5111198;28;20192;-62
2023/12/19 08:24:52;;;;;;;3.25;1.50;;;19.60;49.80;;;;;;5105683;28;20244;-61
2023/12/19 08:27:26;;;;;;;6.70;1.80;;;19.70;49.70;;;;;;5108390;28;20196;-62
2023/12/19 08:29:55;;;;;;;5.78;1.90;;;19.80;49.60;;;;;;5110403;28;20696;-61
2023/12/19 08:32:22;;;;;;;5.43;1.98;;;19.90;49.70;;;;;;5108797;28;20221;-62
2023/12/19 08:34:49;;;;;;;7.18;2.03;;;20.00;49.40;;;;;;5111203;28;20694;-62
2023/12/19 08:37:16;;;;;;;9.65;2.15;;;20.10;49.40;;;;;;5111434;28;20287;-62
2023/12/19 08:39:43;;;;;;;6.25;1.70;;;20.20;49.40;;;;;;5109042;28;20224;-61
2023/12/19 08:42:11;;;;;;;6.80;2.00;;;20.30;49.10;;;;;;5111203;28;20192;-60
2023/12/19 08:44:40;;;;;;;6.03;1.60;;;20.30;49.00;;;;;;5101340;28;20308;-62
2023/12/19 08:47:06;;;;;;;6.35;1.73;;;20.40;49.00;;;;;;5110334;28;20204;-62
2023/12/19 08:49:33;;;;;;;6.78;1.77;;;20.40;48.80;;;;;;5110683;28;20197;-63
2023/12/19 08:52:00;;;;;;;7.15;1.73;;;20.40;48.80;;;;;;5106399;28;20663;-61
2023/12/19 08:54:27;;;;;;;6.47;1.80;;;20.30;49.30;;;;;;5106347;28;20583;-62
2023/12/19 08:56:54;;;;;;;4.80;1.70;;;20.20;48.60;;;;;;5109687;28;20200;-62
2023/12/19 08:59:22;;;;;;;4.35;1.50;;;20.10;48.70;;;;;;5107904;28;20192;-62
2023/12/19 09:01:49;;;;;;;8.57;2.35;;;20.10;49.00;;;;;;5109334;28;20204;-62
2023/12/19 09:04:16;;;;;;;16.00;6.63;;;20.00;49.10;;;;;;5109644;28;20562;-62
2023/12/19 09:06:44;;;;;;;14.75;7.30;;;19.90;49.10;;;;;;5108164;28;20209;-62
2023/12/19 09:09:11;;;;;;;13.93;7.47;;;19.80;49.10;;;;;;5104633;28;20193;-62
2023/12/19 09:11:38;;;;;;;16.63;7.38;;;19.70;49.20;;;;;;5112818;28;20228;-62
2023/12/19 09:14:05;;;;;;;17.60;6.97;;;19.70;49.30;;;;;;5108185;28;20197;-62
2023/12/19 09:16:34;;;;;;;13.00;5.65;;;19.60;49.40;;;;;;5104682;28;20220;-61
2023/12/19 09:19:01;;;;;;;16.83;6.32;;;19.60;49.50;;;;;;5097783;28;20279;-63
2023/12/19 09:21:27;;;;;;;10.45;4.30;;;19.50;49.50;;;;;;5109946;28;20235;-63
2023/12/19 09:23:54;;;;;;;10.20;3.80;;;19.50;49.90;;;;;;5107518;28;20430;-62
2023/12/19 09:26:21;;;;;;;12.60;3.10;;;19.50;50.00;;;;;;5113518;28;20510;-59
2023/12/19 09:28:48;;;;;;;10.70;3.33;;;19.50;49.90;;;;;;5111125;28;20280;-62
2023/12/19 09:31:15;;;;;;;11.15;3.30;;;19.50;49.90;;;;;;5113384;28;20213;-61
2023/12/19 09:33:43;;;;;;;9.68;3.85;;;19.50;50.80;;;;;;5112810;28;20189;-62
2023/12/19 09:36:10;;;;;;;11.77;3.85;;;19.50;50.20;;;;;;5112998;28;20702;-62
2023/12/19 09:38:38;;;;;;;8.75;3.05;;;19.40;50.20;;;;;;5111285;28;20190;-62
2023/12/19 09:41:05;;;;;;;7.90;3.03;;;19.40;50.40;;;;;;5113554;28;20347;-63
2023/12/19 09:43:33;;;;;;;7.70;2.78;;;19.40;50.40;;;;;;5111728;28;20250;-61
2023/12/19 09:46:02;;;;;;;12.30;3.13;;;19.40;50.40;;;;;;5112171;28;20311;-62
2023/12/19 09:48:32;;;;;;;6.30;2.67;;;19.30;50.40;;;;;;5112735;28;20276;-62
2023/12/19 09:51:02;;;;;;;9.50;2.30;;;19.30;50.40;;;;;;5113708;28;20219;-61
2023/12/19 09:53:32;;;;;;;5.90;2.72;;;19.20;50.90;;;;;;5110880;28;20196;-62
2023/12/19 09:55:59;;;;;;;9.65;3.03;;;19.20;50.20;;;;;;5113400;28;20584;-61
2023/12/19 09:58:28;;;;;;;7.78;2.30;;;19.20;50.30;;;;;;5113191;28;20436;-62
2023/12/19 10:00:57;;;;;;;16.05;2.38;;;19.20;50.60;;;;;;5112782;28;20229;-63
2023/12/19 10:03:24;;;;;;;8.65;2.40;;;19.20;51.10;;;;;;5111356;28;20181;-62
2023/12/19 10:05:51;;;;;;;11.23;2.47;;;19.10;51.50;;;;;;5110445;28;20644;-62
2023/12/19 10:08:21;;;;;;;9.88;2.60;;;19.10;50.70;;;;;;5112767;28;20212;-63
2023/12/19 10:10:53;;;;;;;8.05;2.38;;;19.10;51.30;;;;;;5111314;28;20221;-61
2023/12/19 10:13:30;;;;;;;11.00;2.65;;;19.10;50.90;;;;;;5092448;28;20287;-62
2023/12/19 10:16:01;;;;;;;6.80;2.17;;;19.10;50.90;;;;;;5092686;28;20209;-62
2023/12/19 10:18:27;;;;;;;8.32;2.28;;;19.10;50.90;;;;;;5098881;28;20221;-62
2023/12/19 10:21:04;;;;;;;6.10;2.10;;;19.10;50.80;;;;;;5112533;28;20721;-62
2023/12/19 10:23:32;;;;;;;9.77;2.33;;;19.20;50.90;;;;;;5111776;28;20623;-63
2023/12/19 10:25:59;;;;;;;6.60;2.50;;;19.20;50.90;;;;;;5112912;28;20217;-63
2023/12/19 10:28:26;;;;;;;7.68;2.15;;;19.30;50.90;;;;;;5113020;28;20269;-63
2023/12/19 10:31:10;;;;;;;11.93;2.50;;;19.40;51.30;;;;;;5110569;28;20214;-64
2023/12/19 10:33:42;;;;;;;5.50;2.45;;;19.60;51.20;;;;;;5112265;28;20197;-63
2023/12/19 10:36:09;;;;;;;6.32;2.50;;;19.60;51.00;;;;;;5110407;28;20213;-62
2023/12/19 10:38:47;;;;;;;5.15;2.00;;;19.80;51.00;;;;;;5112247;28;20187;-64
2023/12/19 10:41:22;;;;;;;7.53;2.40;;;19.90;50.80;;;;;;5110252;28;20332;-62
2023/12/19 10:43:53;;;;;;;10.25;2.47;;;20.00;50.90;;;;;;5112258;28;20185;-62
2023/12/19 10:46:24;;;;;;;6.30;1.98;;;20.10;50.90;;;;;;5110629;28;20241;-63
2023/12/19 10:48:52;;;;;;;8.93;2.22;;;20.20;51.20;;;;;;5112063;28;20228;-63
2023/12/19 10:51:32;;;;;;;7.82;2.17;;;20.30;50.40;;;;;;5112552;28;20217;-62
2023/12/19 10:54:08;;;;;;;6.25;2.20;;;20.40;50.20;;;;;;5110491;28;20193;-63
2023/12/19 10:56:38;;;;;;;7.10;2.25;;;20.50;50.10;;;;;;5112793;28;20219;-62
2023/12/19 10:59:12;;;;;;;7.30;1.75;;;20.50;50.00;;;;;;5112116;28;20224;-62
2023/12/19 11:01:41;;;;;;;6.88;2.53;;;20.60;49.80;;;;;;5110405;28;20228;-62
2023/12/19 11:04:16;;;;;;;5.05;1.90;;;20.70;49.80;;;;;;5111510;28;20276;-62
2023/12/19 11:06:49;;;;;;;5.93;2.40;;;20.80;49.70;;;;;;5110177;28;20219;-62
2023/12/19 11:09:23;;;;;;;6.30;2.30;;;20.80;49.40;;;;;;5111748;28;20188;-63
2023/12/19 11:11:51;;;;;;;5.05;2.10;;;20.90;49.30;;;;;;5120394;27;20307;-62
2023/12/19 11:14:22;;;;;;;7.50;2.00;;;21.00;49.20;;;;;;5132043;27;20282;-62
2023/12/19 11:16:54;;;;;;;8.07;2.42;;;21.10;49.10;;;;;;5115140;27;20245;-63
2023/12/19 11:19:26;;;;;;;5.43;1.95;;;21.10;49.00;;;;;;5111540;28;20260;-63
2023/12/19 11:22:02;;;;;;;8.60;2.17;;;21.20;49.00;;;;;;5111427;28;20239;-64
2023/12/19 11:24:36;;;;;;;7.50;2.00;;;21.20;48.90;;;;;;5111843;28;20185;-63
2023/12/19 11:27:09;;;;;;;7.53;2.30;;;21.30;48.80;;;;;;5111838;28;20268;-63
2023/12/19 11:29:43;;;;;;;6.60;1.75;;;21.40;48.60;;;;;;5111119;28;20276;-61
2023/12/19 11:32:36;;;;;;;9.13;2.42;;;21.50;48.50;;;;;;5111499;28;20189;-63
2023/12/19 11:35:09;;;;;;;5.78;2.15;;;21.60;48.30;;;;;;5111076;28;20328;-63
2023/12/19 11:37:36;;;;;;;7.22;2.17;;;21.60;49.00;;;;;;5109591;28;20405;-62
2023/12/19 11:40:05;;;;;;;8.70;1.98;;;21.50;48.30;;;;;;5111395;28;20300;-62
2023/12/19 11:42:48;;;;;;;6.57;1.83;;;21.50;48.30;;;;;;5110619;28;20757;-62
2023/12/19 11:45:40;;;;;;;6.50;2.13;;;21.40;48.20;;;;;;5109774;28;20215;-63
2023/12/19 11:48:36;;;;;;;9.20;2.35;;;21.30;48.20;;;;;;5105063;28;20707;-63
2023/12/19 11:51:03;;;;;;;7.05;1.98;;;21.20;48.40;;;;;;5110819;28;20636;-62
2023/12/19 11:53:30;;;;;;;4.85;1.80;;;21.10;48.40;;;;;;5111242;28;20185;-63
2023/12/19 11:56:08;;;;;;;6.72;2.13;;;21.10;49.20;;;;;;5111625;28;20255;-63
2023/12/19 11:58:35;;;;;;;9.05;2.28;;;21.00;48.70;;;;;;5108950;28;20612;-62
2023/12/19 12:01:02;;;;;;;6.68;1.90;;;20.90;49.40;;;;;;5110908;28;20296;-62
2023/12/19 12:03:30;;;;;;;8.40;2.20;;;20.80;48.90;;;;;;5110899;28;20681;-63
2023/12/19 12:05:57;;;;;;;8.25;1.98;;;20.70;49.60;;;;;;5110202;28;20785;-62
2023/12/19 12:08:24;;;;;;;5.22;1.83;;;20.60;49.10;;;;;;5110973;28;20200;-62
2023/12/19 12:11:01;;;;;;;6.85;2.20;;;20.60;49.90;;;;;;5110856;28;20217;-62
2023/12/19 12:13:31;;;;;;;5.53;2.10;;;20.50;49.30;;;;;;5108830;28;20276;-63
2023/12/19 12:15:59;;;;;;;6.97;2.10;;;20.50;49.40;;;;;;5111101;28;20304;-61
2023/12/19 12:18:27;;;;;;;7.03;2.05;;;20.50;49.50;;;;;;5110509;28;20611;-62
2023/12/19 12:20:56;;;;;;;8.00;2.20;;;20.50;49.60;;;;;;5109969;28;20233;-62
2023/12/19 12:23:23;;;;;;;4.45;1.70;;;20.50;49.50;;;;;;5110938;28;20197;-62
2023/12/19 12:25:56;;;;;;;7.20;2.60;;;20.60;49.50;;;;;;5109183;28;20212;-62
2023/12/19 12:28:26;;;;;;;6.07;1.77;;;20.70;49.40;;;;;;5110430;28;20675;-62
2023/12/19 12:30:55;;;;;;;7.20;2.03;;;20.80;49.20;;;;;;5110908;28;20217;-62
2023/12/19 12:33:25;;;;;;;4.97;1.77;;;20.90;49.80;;;;;;5110477;28;20295;-62
2023/12/19 12:35:51;;;;;;;5.63;1.75;;;21.00;49.10;;;;;;5108895;28;20209;-63
2023/12/19 12:38:19;;;;;;;8.27;2.00;;;21.00;48.90;;;;;;5110798;28;20272;-59
2023/12/19 12:40:55;;;;;;;5.22;1.88;;;21.00;48.90;;;;;;5110608;28;20216;-62
2023/12/19 12:43:37;;;;;;;3.85;1.63;;;21.00;48.80;;;;;;5110059;28;20189;-63
2023/12/19 12:46:10;;;;;;;6.13;1.90;;;21.00;48.90;;;;;;5110508;28;20212;-62
2023/12/19 12:48:39;;;;;;;5.25;1.77;;;21.00;48.90;;;;;;5110639;28;20268;-62
2023/12/19 12:51:07;;;;;;;6.72;1.98;;;20.90;48.90;;;;;;5108692;28;20583;-62